createdAt,value
2023-04-11T00:00:53.312Z,45.11
2023-04-11T00:02:59.915Z,45.22
2023-04-11T00:05:03.331Z,44.99
2023-04-11T00:07:07.660Z,45.16
2023-04-11T00:09:11.780Z,45.08
2023-04-11T00:11:14.417Z,45.31
2023-04-11T00:13:19.647Z,45.00
2023-04-11T00:15:24.529Z,44.75
2023-04-11T00:17:31.280Z,44.76
2023-04-11T00:19:33.902Z,45.15
2023-04-11T00:21:39.784Z,44.91
2023-04-11T00:23:42.364Z,44.79
2023-04-11T00:25:44.892Z,44.88
2023-04-11T00:27:47.430Z,45.24
2023-04-11T00:29:49.959Z,44.56
2023-04-11T00:31:55.497Z,44.23
2023-04-11T00:33:58.198Z,44.22
2023-04-11T00:36:00.834Z,44.20
2023-04-11T00:38:03.974Z,44.01
2023-04-11T00:40:07.779Z,44.01
2023-04-11T00:42:10.927Z,44.13
2023-04-11T00:44:13.849Z,44.71
2023-04-11T00:46:18.002Z,44.92
2023-04-11T00:48:22.328Z,44.77
2023-04-11T00:50:25.013Z,44.38
2023-04-11T00:52:27.664Z,44.32
2023-04-11T00:54:31.130Z,44.33
2023-04-11T00:56:33.743Z,44.41
2023-04-11T00:58:37.963Z,44.48
2023-04-11T01:00:41.542Z,44.88
2023-04-11T01:02:45.301Z,45.43
2023-04-11T01:04:51.577Z,45.61
2023-04-11T01:06:59.506Z,45.64
2023-04-11T01:09:04.793Z,45.63
2023-04-11T01:11:09.007Z,45.55
2023-04-11T01:13:12.238Z,45.61
2023-04-11T01:15:14.946Z,45.88
2023-04-11T01:17:17.757Z,46.14
2023-04-11T01:19:22.104Z,46.16
2023-04-11T01:21:27.077Z,45.75
2023-04-11T01:23:31.151Z,46.24
2023-04-11T01:25:33.852Z,46.04
2023-04-11T01:27:37.725Z,46.25
2023-04-11T01:29:40.525Z,46.09
2023-04-11T01:31:43.107Z,46.36
2023-04-11T01:33:45.879Z,46.18
2023-04-11T01:35:48.549Z,46.56
2023-04-11T01:37:51.195Z,47.06
2023-04-11T01:39:55.249Z,46.71
2023-04-11T01:41:59.738Z,46.63
2023-04-11T01:44:02.860Z,47.15
2023-04-11T01:46:05.753Z,47.34
2023-04-11T01:48:08.830Z,47.94
2023-04-11T01:50:12.223Z,47.77
2023-04-11T01:52:14.771Z,47.64
2023-04-11T01:54:17.341Z,47.79
2023-04-11T01:56:24.028Z,48.50
2023-04-11T01:58:26.594Z,48.74
2023-04-11T02:00:29.127Z,49.27
2023-04-11T02:02:31.790Z,49.31
2023-04-11T02:04:34.534Z,49.30
2023-04-11T02:06:38.526Z,49.65
2023-04-11T02:08:41.061Z,49.76
2023-04-11T02:10:43.605Z,49.96
2023-04-11T02:12:47.525Z,50.40
2023-04-11T02:14:50.283Z,50.70
2023-04-11T02:16:54.219Z,50.98
2023-04-11T02:18:57.911Z,51.21
2023-04-11T02:21:00.689Z,51.77
2023-04-11T02:23:04.412Z,52.70
2023-04-11T02:25:08.303Z,53.47
2023-04-11T02:27:11.929Z,53.69
2023-04-11T02:29:15.980Z,54.58
2023-04-11T02:31:18.586Z,55.54
2023-04-11T02:33:21.267Z,55.67
2023-04-11T02:35:23.788Z,57.10
2023-04-11T02:37:26.767Z,58.61
2023-04-11T02:39:29.752Z,58.67
2023-04-11T02:41:32.268Z,59.25
2023-04-11T02:43:34.815Z,59.42
2023-04-11T02:45:38.732Z,60.31
2023-04-11T02:47:41.327Z,61.40
2023-04-11T02:49:43.979Z,62.07
2023-04-11T02:51:49.039Z,63.68
2023-04-11T02:53:54.297Z,63.74
2023-04-11T02:55:56.837Z,64.66
2023-04-11T02:57:59.393Z,64.10
2023-04-11T03:00:02.009Z,64.78
2023-04-11T03:02:06.079Z,65.47
2023-04-11T03:04:08.722Z,65.49
2023-04-11T03:06:11.632Z,65.61
2023-04-11T03:08:14.192Z,65.91
2023-04-11T03:10:16.805Z,66.63
2023-04-11T03:12:20.075Z,67.07
2023-04-11T03:14:22.620Z,65.87
2023-04-11T03:16:25.505Z,66.64
2023-04-11T03:18:29.441Z,66.64
2023-04-11T03:20:32.005Z,66.98
2023-04-11T03:22:34.596Z,66.47
2023-04-11T03:24:39.250Z,66.25
2023-04-11T03:26:41.807Z,66.91
2023-04-11T03:28:44.336Z,66.97
2023-04-11T03:30:48.747Z,67.17
2023-04-11T03:32:52.974Z,67.24
2023-04-11T03:34:57.969Z,66.74
2023-04-11T03:37:00.494Z,67.72
2023-04-11T03:39:03.771Z,68.29
2023-04-11T03:41:06.954Z,68.65
2023-04-11T03:43:09.519Z,68.13
2023-04-11T03:45:12.132Z,68.57
2023-04-11T03:47:17.541Z,67.90
2023-04-11T03:49:20.087Z,67.93
2023-04-11T03:51:24.014Z,67.87
2023-04-11T03:53:26.569Z,68.46
2023-04-11T03:55:29.409Z,68.11
2023-04-11T03:57:32.293Z,67.83
2023-04-11T03:59:34.862Z,66.53
2023-04-11T04:01:38.490Z,66.59
2023-04-11T04:03:41.370Z,66.97
2023-04-11T04:05:44.071Z,67.69
2023-04-11T04:07:47.983Z,68.40
2023-04-11T04:09:50.753Z,68.54
2023-04-11T04:11:53.313Z,68.67
2023-04-11T04:13:56.082Z,69.03
2023-04-11T04:16:00.662Z,69.63
2023-04-11T04:18:04.736Z,69.88
2023-04-11T04:20:09.368Z,69.84
2023-04-11T04:22:13.254Z,69.41
2023-04-11T04:24:17.458Z,69.59
2023-04-11T04:26:25.084Z,70.11
2023-04-11T04:28:27.883Z,70.54
2023-04-11T04:30:30.408Z,70.84
2023-04-11T04:32:32.995Z,70.86
2023-04-11T04:34:35.559Z,70.41
2023-04-11T04:36:46.324Z,70.51
2023-04-11T04:38:48.863Z,70.60
2023-04-11T04:40:54.715Z,70.39
2023-04-11T04:42:59.052Z,69.47
2023-04-11T04:45:01.651Z,67.60
2023-04-11T04:47:04.213Z,67.99
2023-04-11T04:49:07.707Z,67.74
2023-04-11T04:51:10.345Z,68.11
2023-04-11T04:53:12.905Z,67.98
2023-04-11T04:55:15.599Z,69.06
2023-04-11T04:57:19.545Z,69.56
2023-04-11T04:59:22.065Z,70.25
2023-04-11T05:01:26.848Z,70.68
2023-04-11T05:03:30.407Z,70.80
2023-04-11T05:05:33.121Z,70.98
2023-04-11T05:07:36.179Z,69.59
2023-04-11T05:09:38.707Z,69.00
2023-04-11T05:11:41.261Z,68.98
2023-04-11T05:13:45.178Z,69.66
2023-04-11T05:15:51.285Z,69.10
2023-04-11T05:17:53.852Z,69.01
2023-04-11T05:19:56.468Z,68.54
2023-04-11T05:21:59.915Z,68.99
2023-04-11T05:24:02.454Z,68.96
2023-04-11T05:26:05.350Z,68.87
2023-04-11T05:28:07.961Z,67.27
2023-04-11T05:30:13.257Z,67.96
2023-04-11T05:32:15.890Z,68.35
2023-04-11T05:34:18.546Z,67.35
2023-04-11T05:36:21.209Z,65.94
2023-04-11T05:38:23.726Z,66.34
2023-04-11T05:40:26.298Z,66.68
2023-04-11T05:42:28.861Z,67.66
2023-04-11T05:44:31.391Z,67.78
2023-04-11T05:46:37.000Z,67.29
2023-04-11T05:48:39.699Z,66.44
2023-04-11T05:50:42.419Z,66.86
2023-04-11T05:52:44.987Z,65.84
2023-04-11T05:54:47.557Z,64.82
2023-04-11T05:56:50.108Z,65.54
2023-04-11T05:58:53.114Z,65.34
2023-04-11T06:00:55.647Z,65.72
2023-04-11T06:03:00.195Z,64.00
2023-04-11T06:05:03.902Z,63.56
2023-04-11T06:07:07.632Z,62.63
2023-04-11T06:09:10.870Z,61.86
2023-04-11T06:11:13.450Z,62.04
2023-04-11T06:13:16.041Z,62.65
2023-04-11T06:15:18.787Z,60.02
2023-04-11T06:17:21.417Z,60.41
2023-04-11T06:19:25.314Z,60.73
2023-04-11T06:21:27.837Z,60.22
2023-04-11T06:23:30.406Z,61.23
2023-04-11T06:25:32.944Z,61.80
2023-04-11T06:27:35.604Z,62.42
2023-04-11T06:29:38.326Z,62.94
2023-04-11T06:31:41.418Z,63.06
2023-04-11T06:33:44.086Z,63.27
2023-04-11T06:35:47.980Z,64.19
2023-04-11T06:37:50.521Z,65.12
2023-04-11T06:39:53.117Z,64.86
2023-04-11T06:41:56.435Z,65.40
2023-04-11T06:43:59.206Z,65.67
2023-04-11T06:46:01.975Z,66.43
2023-04-11T06:48:04.925Z,66.95
2023-04-11T06:50:08.893Z,66.18
2023-04-11T06:52:12.820Z,66.53
2023-04-11T06:54:15.520Z,66.14
2023-04-11T06:56:18.059Z,65.87
2023-04-11T06:58:20.665Z,64.83
2023-04-11T07:00:23.399Z,64.00
2023-04-11T07:02:26.379Z,64.91
2023-04-11T07:04:29.214Z,64.24
2023-04-11T07:06:32.480Z,64.51
2023-04-11T07:08:36.781Z,64.83
2023-04-11T07:10:39.304Z,65.05
2023-04-11T07:12:41.828Z,63.81
2023-04-11T07:14:44.437Z,64.24
2023-04-11T07:16:46.979Z,63.56
2023-04-11T07:18:49.832Z,62.99
2023-04-11T07:20:52.727Z,63.12
2023-04-11T07:22:56.643Z,63.12
2023-04-11T07:25:00.504Z,63.78
2023-04-11T07:27:03.089Z,63.00
2023-04-11T07:29:07.239Z,63.43
2023-04-11T07:31:13.795Z,62.97
2023-04-11T07:33:16.416Z,63.33
2023-04-11T07:35:18.986Z,64.77
2023-04-11T07:37:21.508Z,63.60
2023-04-11T07:39:24.096Z,62.11
2023-04-11T07:41:28.057Z,63.43
2023-04-11T07:43:31.232Z,63.61
2023-04-11T07:45:34.335Z,62.63
2023-04-11T07:47:36.936Z,62.54
2023-04-11T07:49:39.494Z,61.93
2023-04-11T07:51:42.039Z,61.74
2023-04-11T07:53:44.608Z,61.65
2023-04-11T07:55:47.182Z,60.93
2023-04-11T07:57:51.106Z,62.27
2023-04-11T07:59:53.647Z,62.30
2023-04-11T08:02:00.871Z,62.64
2023-04-11T08:04:04.010Z,62.08
2023-04-11T08:06:07.712Z,62.74
2023-04-11T08:08:10.497Z,61.69
2023-04-11T08:10:13.076Z,61.59
2023-04-11T08:12:16.601Z,62.56
2023-04-11T08:14:20.580Z,61.52
2023-04-11T08:16:23.230Z,61.83
2023-04-11T08:18:25.963Z,61.62
2023-04-11T08:20:28.682Z,61.29
2023-04-11T08:22:33.079Z,60.87
2023-04-11T08:24:35.643Z,60.23
2023-04-11T08:26:38.205Z,60.25
2023-04-11T08:28:42.820Z,61.04
2023-04-11T08:30:47.544Z,61.98
2023-04-11T08:32:50.219Z,62.14
2023-04-11T08:34:52.755Z,60.55
2023-04-11T08:36:55.297Z,61.05
2023-04-11T08:39:00.061Z,60.84
2023-04-11T08:41:02.593Z,61.54
2023-04-11T08:43:10.051Z,61.65
2023-04-11T08:45:13.316Z,61.14
2023-04-11T08:47:17.646Z,60.55
2023-04-11T08:49:20.201Z,60.64
2023-04-11T08:51:27.573Z,59.74
2023-04-11T08:53:31.516Z,58.68
2023-04-11T08:55:34.086Z,60.12
2023-04-11T08:57:39.071Z,60.64
2023-04-11T08:59:49.843Z,60.67
2023-04-11T09:01:52.654Z,61.25
2023-04-11T09:03:57.429Z,59.92
2023-04-11T09:06:10.236Z,59.01
2023-04-11T09:08:14.401Z,59.30
2023-04-11T09:10:21.339Z,58.96
2023-04-11T09:12:30.737Z,58.21
2023-04-11T09:14:33.581Z,58.44
2023-04-11T09:16:36.744Z,58.58
2023-04-11T09:18:40.602Z,57.98
2023-04-11T09:20:44.561Z,58.50
2023-04-11T09:22:50.282Z,57.26
2023-04-11T09:25:03.499Z,57.88
2023-04-11T09:27:13.602Z,57.00
2023-04-11T09:29:36.837Z,57.87
2023-04-11T09:31:42.269Z,57.93
2023-04-11T09:33:57.144Z,56.69
2023-04-11T09:36:02.584Z,55.43
2023-04-11T09:38:09.222Z,56.21
2023-04-11T09:40:12.456Z,53.14
2023-04-11T09:42:25.096Z,53.13
2023-04-11T09:44:37.338Z,53.33
2023-04-11T09:46:57.333Z,54.47
2023-04-11T09:49:01.517Z,54.39
2023-04-11T09:51:07.815Z,54.74
2023-04-11T09:53:11.540Z,53.10
2023-04-11T09:55:16.288Z,52.45
2023-04-11T09:57:20.339Z,50.44
2023-04-11T09:59:24.047Z,51.36
2023-04-11T10:01:27.271Z,52.39
2023-04-11T10:03:34.614Z,53.26
2023-04-11T10:05:39.589Z,54.64
2023-04-11T10:07:54.994Z,55.72
2023-04-11T10:09:57.647Z,56.92
2023-04-11T10:12:00.427Z,55.73
2023-04-11T10:14:03.064Z,56.04
2023-04-11T10:16:10.175Z,56.81
2023-04-11T10:18:13.740Z,56.21
2023-04-11T10:20:47.184Z,54.85
2023-04-11T10:23:01.455Z,55.56
2023-04-11T10:25:16.516Z,56.13
2023-04-11T10:27:48.859Z,57.94
2023-04-11T10:29:53.030Z,57.36
2023-04-11T10:32:11.529Z,59.12
2023-04-11T10:34:15.364Z,59.77
2023-04-11T10:36:18.515Z,58.61
2023-04-11T10:38:51.382Z,56.88
2023-04-11T10:41:26.282Z,55.84
2023-04-11T10:43:28.965Z,56.37
2023-04-11T10:45:32.341Z,57.21
2023-04-11T10:47:35.076Z,56.48
2023-04-11T10:49:39.311Z,56.48
2023-04-11T10:51:42.020Z,57.12
2023-04-11T10:53:47.246Z,55.77
2023-04-11T10:55:51.912Z,55.38
2023-04-11T10:58:08.057Z,55.08
2023-04-11T11:00:14.365Z,54.50
2023-04-11T11:02:19.431Z,55.13
2023-04-11T11:04:32.081Z,54.46
2023-04-11T11:06:46.245Z,53.25
2023-04-11T11:08:49.781Z,52.53
2023-04-11T11:10:54.179Z,51.32
2023-04-11T11:12:57.177Z,51.16
2023-04-11T11:14:59.731Z,52.20
2023-04-11T11:17:03.064Z,52.21
2023-04-11T11:19:06.363Z,50.02
2023-04-11T11:21:14.042Z,50.52
2023-04-11T11:23:19.749Z,50.61
2023-04-11T11:25:22.316Z,50.76
2023-04-11T11:27:26.307Z,49.09
2023-04-11T11:29:32.833Z,48.54
2023-04-11T11:31:37.733Z,48.39
2023-04-11T11:33:41.516Z,48.42
2023-04-11T11:35:46.962Z,47.57
2023-04-11T11:37:52.017Z,44.65
2023-04-11T11:39:54.902Z,45.04
2023-04-11T11:41:58.098Z,44.89
2023-04-11T11:44:02.302Z,44.01
2023-04-11T11:46:09.900Z,44.20
2023-04-11T11:48:21.290Z,43.25
2023-04-11T11:50:28.862Z,43.08
2023-04-11T11:52:33.678Z,43.02
2023-04-11T11:54:44.342Z,44.32
2023-04-11T11:56:52.427Z,44.32
2023-04-11T11:58:55.274Z,44.29
2023-04-11T12:00:59.452Z,44.64
2023-04-11T12:03:03.544Z,44.88
2023-04-11T12:05:07.867Z,43.84
2023-04-11T12:07:12.089Z,43.58
2023-04-11T12:09:14.635Z,44.24
2023-04-11T12:11:18.304Z,44.35
2023-04-11T12:13:22.611Z,43.11
2023-04-11T12:15:25.583Z,44.68
2023-04-11T12:17:36.288Z,45.35
2023-04-11T12:19:43.167Z,44.16
2023-04-11T12:21:45.800Z,42.10
2023-04-11T12:23:48.331Z,43.02
2023-04-11T12:25:51.151Z,43.23
2023-04-11T12:27:53.964Z,42.58
2023-04-11T12:29:56.775Z,42.79
2023-04-11T12:31:59.313Z,40.52
2023-04-11T12:34:03.314Z,41.04
2023-04-11T12:36:07.750Z,41.96
2023-04-11T12:38:11.936Z,42.46
2023-04-11T12:40:17.907Z,41.93
2023-04-11T12:42:23.827Z,42.71
2023-04-11T12:44:29.166Z,42.02
2023-04-11T12:46:33.566Z,42.45
2023-04-11T12:48:36.589Z,42.42
2023-04-11T12:50:40.858Z,43.19
2023-04-11T12:52:43.426Z,43.13
2023-04-11T12:54:48.808Z,42.89
2023-04-11T12:56:51.346Z,42.80
2023-04-11T12:58:53.953Z,42.75
2023-04-11T13:00:56.648Z,43.24
2023-04-11T13:02:59.522Z,43.24
2023-04-11T13:05:08.653Z,43.67
2023-04-11T13:07:12.592Z,44.56
2023-04-11T13:09:15.632Z,44.34
2023-04-11T13:11:18.184Z,43.73
2023-04-11T13:13:20.826Z,43.27
2023-04-11T13:15:23.407Z,43.48
2023-04-11T13:17:25.982Z,44.21
2023-04-11T13:19:28.567Z,42.84
2023-04-11T13:21:31.615Z,43.23
2023-04-11T13:23:36.130Z,43.70
2023-04-11T13:25:38.679Z,44.00
2023-04-11T13:27:42.067Z,44.04
2023-04-11T13:29:44.671Z,41.44
2023-04-11T13:31:47.237Z,41.77
2023-04-11T13:33:49.808Z,42.01
2023-04-11T13:35:52.366Z,42.98
2023-04-11T13:37:54.904Z,43.58
2023-04-11T13:39:58.802Z,43.77
2023-04-11T13:42:01.359Z,43.58
2023-04-11T13:44:03.937Z,41.93
2023-04-11T13:46:06.876Z,41.40
2023-04-11T13:48:09.502Z,40.93
2023-04-11T13:50:12.248Z,40.65
2023-04-11T13:52:14.863Z,41.37
2023-04-11T13:54:17.611Z,39.50
2023-04-11T13:56:21.528Z,38.77
2023-04-11T13:58:24.062Z,38.54
2023-04-11T14:00:26.724Z,39.32
2023-04-11T14:02:29.352Z,39.03
2023-04-11T14:04:32.171Z,38.23
2023-04-11T14:06:35.360Z,38.78
2023-04-11T14:08:38.121Z,38.60
2023-04-11T14:10:44.214Z,38.21
2023-04-11T14:12:48.498Z,38.14
2023-04-11T14:14:51.090Z,37.73
2023-04-11T14:16:54.001Z,39.04
2023-04-11T14:18:56.856Z,38.62
2023-04-11T14:21:01.642Z,38.60
2023-04-11T14:23:04.296Z,37.98
2023-04-11T14:25:10.419Z,37.97
2023-04-11T14:27:12.951Z,37.83
2023-04-11T14:29:17.540Z,37.41
2023-04-11T14:31:20.142Z,37.13
2023-04-11T14:33:23.007Z,37.03
2023-04-11T14:35:26.192Z,37.31
2023-04-11T14:37:28.720Z,36.60
2023-04-11T14:39:31.641Z,36.20
2023-04-11T14:41:34.207Z,35.89
2023-04-11T14:43:36.954Z,35.60
2023-04-11T14:45:41.204Z,34.87
2023-04-11T14:47:43.836Z,35.66
2023-04-11T14:49:46.664Z,35.37
2023-04-11T14:51:49.216Z,35.97
2023-04-11T14:53:55.164Z,35.40
2023-04-11T14:55:58.055Z,36.69
2023-04-11T14:58:00.696Z,36.96
2023-04-11T15:00:06.440Z,37.29
2023-04-11T15:02:10.713Z,37.83
2023-04-11T15:04:13.422Z,38.25
2023-04-11T15:06:16.220Z,38.24
2023-04-11T15:08:18.758Z,38.15
2023-04-11T15:10:23.342Z,38.30
2023-04-11T15:12:25.990Z,38.72
2023-04-11T15:14:30.178Z,39.09
2023-04-11T15:16:32.827Z,39.10
2023-04-11T15:18:36.788Z,38.99
2023-04-11T15:20:39.466Z,38.49
2023-04-11T15:22:43.550Z,38.18
2023-04-11T15:24:46.086Z,37.71
2023-04-11T15:26:48.656Z,37.80
2023-04-11T15:28:51.233Z,36.89
2023-04-11T15:30:55.300Z,37.20
2023-04-11T15:32:58.565Z,38.01
2023-04-11T15:35:02.833Z,37.78
2023-04-11T15:37:11.277Z,37.69
2023-04-11T15:39:13.873Z,37.71
2023-04-11T15:41:16.442Z,38.49
2023-04-11T15:43:19.376Z,38.03
2023-04-11T15:45:22.135Z,38.30
2023-04-11T15:47:24.715Z,38.80
2023-04-11T15:49:27.259Z,39.14
2023-04-11T15:51:31.209Z,38.79
2023-04-11T15:53:33.742Z,38.87
2023-04-11T15:55:39.640Z,38.94
2023-04-11T15:57:42.222Z,39.17
2023-04-11T15:59:44.896Z,39.68
2023-04-11T16:01:47.519Z,39.57
2023-04-11T16:03:51.536Z,39.89
2023-04-11T16:05:54.276Z,39.55
2023-04-11T16:07:58.266Z,39.57
2023-04-11T16:10:00.806Z,39.71
2023-04-11T16:12:03.510Z,40.40
2023-04-11T16:14:06.319Z,40.72
2023-04-11T16:16:10.454Z,41.03
2023-04-11T16:18:13.087Z,39.94
2023-04-11T16:20:18.444Z,39.96
2023-04-11T16:22:21.165Z,39.37
2023-04-11T16:24:25.882Z,39.36
2023-04-11T16:26:28.461Z,39.15
2023-04-11T16:28:31.002Z,38.47
2023-04-11T16:30:34.481Z,38.74
2023-04-11T16:32:37.063Z,38.19
2023-04-11T16:34:39.985Z,38.16
2023-04-11T16:36:42.623Z,38.03
2023-04-11T16:38:45.161Z,38.38
2023-04-11T16:40:49.091Z,38.21
2023-04-11T16:42:51.698Z,39.00
2023-04-11T16:44:54.281Z,39.36
2023-04-11T16:46:56.829Z,39.45
2023-04-11T16:49:00.188Z,38.35
2023-04-11T16:51:02.952Z,37.99
2023-04-11T16:53:05.506Z,38.26
2023-04-11T16:55:08.639Z,38.39
2023-04-11T16:57:12.574Z,38.68
2023-04-11T16:59:15.923Z,39.06
2023-04-11T17:01:18.539Z,38.38
2023-04-11T17:03:21.741Z,39.03
2023-04-11T17:05:24.888Z,39.25
2023-04-11T17:07:28.452Z,38.97
2023-04-11T17:09:31.541Z,39.48
2023-04-11T17:11:36.790Z,39.70
2023-04-11T17:13:45.120Z,39.61
2023-04-11T17:15:47.677Z,39.16
2023-04-11T17:17:50.666Z,39.39
2023-04-11T17:19:53.443Z,39.68
2023-04-11T17:21:57.393Z,39.96
2023-04-11T17:24:00.080Z,39.69
2023-04-11T17:26:03.224Z,39.48
2023-04-11T17:28:06.191Z,39.90
2023-04-11T17:30:12.085Z,40.03
2023-04-11T17:32:14.651Z,40.61
2023-04-11T17:34:17.201Z,41.32
2023-04-11T17:36:19.824Z,41.37
2023-04-11T17:38:22.362Z,41.46
2023-04-11T17:40:24.961Z,41.31
2023-04-11T17:42:27.521Z,41.73
2023-04-11T17:44:30.690Z,41.85
2023-04-11T17:46:35.473Z,42.28
2023-04-11T17:48:38.082Z,41.84
2023-04-11T17:50:40.864Z,42.02
2023-04-11T17:52:45.170Z,42.30
2023-04-11T17:54:47.983Z,42.02
2023-04-11T17:56:50.616Z,42.44
2023-04-11T17:58:53.593Z,42.30
2023-04-11T18:00:57.225Z,42.49
2023-04-11T18:03:02.903Z,42.51
2023-04-11T18:05:13.293Z,42.72
2023-04-11T18:07:25.612Z,42.92
2023-04-11T18:09:31.723Z,43.15
2023-04-11T18:11:34.279Z,43.50
2023-04-11T18:13:36.895Z,43.49
2023-04-11T18:15:39.489Z,43.68
2023-04-11T18:17:42.452Z,44.12
2023-04-11T18:19:46.428Z,44.47
2023-04-11T18:21:50.523Z,45.33
2023-04-11T18:23:53.397Z,45.45
2023-04-11T18:25:55.958Z,46.06
2023-04-11T18:27:58.528Z,46.65
2023-04-11T18:30:02.136Z,46.72
2023-04-11T18:32:04.729Z,46.62
2023-04-11T18:34:08.298Z,46.65
2023-04-11T18:36:12.973Z,47.07
2023-04-11T18:38:16.245Z,47.20
2023-04-11T18:40:19.527Z,46.89
2023-04-11T18:42:22.185Z,46.95
2023-04-11T18:44:27.185Z,47.19
2023-04-11T18:46:34.334Z,47.65
2023-04-11T18:48:38.090Z,48.83
2023-04-11T18:50:42.863Z,49.50
2023-04-11T18:52:51.192Z,49.52
2023-04-11T18:54:56.485Z,49.49
2023-04-11T18:56:59.686Z,49.57
2023-04-11T18:59:05.504Z,49.15
2023-04-11T19:01:16.576Z,49.28
2023-04-11T19:03:20.795Z,49.41
2023-04-11T19:05:25.555Z,50.06
2023-04-11T19:07:28.377Z,49.96
2023-04-11T19:09:32.787Z,50.31
2023-04-11T19:11:38.416Z,51.18
2023-04-11T19:13:41.158Z,51.71
2023-04-11T19:15:43.831Z,51.57
2023-04-11T19:17:47.376Z,50.93
2023-04-11T19:19:51.970Z,50.64
2023-04-11T19:21:54.537Z,50.30
2023-04-11T19:23:57.567Z,50.51
2023-04-11T19:26:02.254Z,50.08
2023-04-11T19:28:05.196Z,50.41
2023-04-11T19:30:10.439Z,50.71
2023-04-11T19:32:13.163Z,51.43
2023-04-11T19:34:16.109Z,51.37
2023-04-11T19:36:19.163Z,51.61
2023-04-11T19:38:22.213Z,50.54
2023-04-11T19:40:25.228Z,49.77
2023-04-11T19:42:30.701Z,48.50
2023-04-11T19:44:33.678Z,48.35
2023-04-11T19:46:36.682Z,48.73
2023-04-11T19:48:39.924Z,48.87
2023-04-11T19:50:42.564Z,48.73
2023-04-11T19:52:47.972Z,49.24
2023-04-11T19:54:50.594Z,48.67
2023-04-11T19:56:53.522Z,49.26
2023-04-11T19:58:59.641Z,51.21
2023-04-11T20:01:02.537Z,51.48
2023-04-11T20:03:07.575Z,51.63
2023-04-11T20:05:10.836Z,51.51
2023-04-11T20:07:13.395Z,51.55
2023-04-11T20:09:15.944Z,50.96
2023-04-11T20:11:20.272Z,50.45
2023-04-11T20:13:22.841Z,49.88
2023-04-11T20:15:26.934Z,49.50
2023-04-11T20:17:29.535Z,49.93
2023-04-11T20:19:33.156Z,49.87
2023-04-11T20:21:35.701Z,49.88
2023-04-11T20:23:39.194Z,49.92
2023-04-11T20:25:42.249Z,50.51
2023-04-11T20:27:44.791Z,50.77
2023-04-11T20:29:47.324Z,51.33
2023-04-11T20:31:51.269Z,51.41
2023-04-11T20:33:54.991Z,51.64
2023-04-11T20:35:57.717Z,50.98
2023-04-11T20:38:00.275Z,50.52
2023-04-11T20:40:03.582Z,50.29
2023-04-11T20:42:10.583Z,49.61
2023-04-11T20:44:16.855Z,49.45
2023-04-11T20:46:21.649Z,49.62
2023-04-11T20:48:25.816Z,50.25
2023-04-11T20:50:30.788Z,51.12
2023-04-11T20:52:33.526Z,52.04
2023-04-11T20:54:36.120Z,52.06
2023-04-11T20:56:38.992Z,51.76
2023-04-11T20:58:41.646Z,51.25
2023-04-11T21:00:44.430Z,50.55
2023-04-11T21:02:49.945Z,50.93
2023-04-11T21:04:54.569Z,51.24
2023-04-11T21:06:57.640Z,50.40
2023-04-11T21:09:01.012Z,50.26
2023-04-11T21:11:03.619Z,50.77
2023-04-11T21:13:06.383Z,50.97
2023-04-11T21:15:10.305Z,51.32
2023-04-11T21:17:13.214Z,51.34
2023-04-11T21:19:15.793Z,51.42
2023-04-11T21:21:19.673Z,51.63
2023-04-11T21:23:22.571Z,52.10
2023-04-11T21:25:25.240Z,51.91
2023-04-11T21:27:27.807Z,51.59
2023-04-11T21:29:30.380Z,51.42
2023-04-11T21:31:32.974Z,51.77
2023-04-11T21:33:35.578Z,51.63
2023-04-11T21:35:38.157Z,51.65
2023-04-11T21:37:42.101Z,51.54
2023-04-11T21:39:44.671Z,51.94
2023-04-11T21:41:47.228Z,52.07
2023-04-11T21:43:49.763Z,51.80
2023-04-11T21:45:52.359Z,52.09
2023-04-11T21:47:55.044Z,51.85
2023-04-11T21:49:57.650Z,51.85
2023-04-11T21:52:00.397Z,52.62
2023-04-11T21:54:06.349Z,52.95
2023-04-11T21:56:09.987Z,52.65
2023-04-11T21:58:25.897Z,53.34
2023-04-11T22:00:31.531Z,53.24
2023-04-11T22:02:34.290Z,53.14
2023-04-11T22:04:47.516Z,53.17
2023-04-11T22:06:58.786Z,52.81
2023-04-11T22:09:03.212Z,52.62
2023-04-11T22:11:10.152Z,52.60
2023-04-11T22:13:15.821Z,52.50
2023-04-11T22:15:18.831Z,52.78
2023-04-11T22:17:22.203Z,52.38
2023-04-11T22:19:24.967Z,52.33
2023-04-11T22:21:31.849Z,52.55
2023-04-11T22:23:35.882Z,52.43
2023-04-11T22:25:38.712Z,52.75
2023-04-11T22:27:44.579Z,53.48
2023-04-11T22:29:47.136Z,53.52
2023-04-11T22:31:50.383Z,53.43
2023-04-11T22:33:53.134Z,53.59
2023-04-11T22:35:58.244Z,53.42
2023-04-11T22:38:00.854Z,53.36
2023-04-11T22:40:06.107Z,53.18
2023-04-11T22:42:08.665Z,52.72
2023-04-11T22:44:12.552Z,52.01
2023-04-11T22:46:15.347Z,51.26
2023-04-11T22:48:18.006Z,50.58
2023-04-11T22:50:21.413Z,50.56
2023-04-11T22:52:25.840Z,50.77
2023-04-11T22:54:28.945Z,50.37
2023-04-11T22:56:31.527Z,50.17
2023-04-11T22:58:34.106Z,49.67
2023-04-11T23:00:38.369Z,49.96
2023-04-11T23:02:41.194Z,50.14
2023-04-11T23:04:44.482Z,49.28
2023-04-11T23:06:49.396Z,49.64
2023-04-11T23:08:54.025Z,49.49
2023-04-11T23:10:56.577Z,49.32
2023-04-11T23:12:59.136Z,49.50
2023-04-11T23:15:02.505Z,49.23
2023-04-11T23:17:06.599Z,49.57
2023-04-11T23:19:09.916Z,49.35
2023-04-11T23:21:14.297Z,49.44
2023-04-11T23:23:16.943Z,49.43
2023-04-11T23:25:19.850Z,49.47
2023-04-11T23:27:22.757Z,49.37
2023-04-11T23:29:25.846Z,49.73
2023-04-11T23:31:28.491Z,49.40
2023-04-11T23:33:32.483Z,49.69
2023-04-11T23:35:35.394Z,49.54
2023-04-11T23:37:38.009Z,49.12
2023-04-11T23:39:41.004Z,49.42
2023-04-11T23:41:44.586Z,49.43
2023-04-11T23:43:47.232Z,50.05
2023-04-11T23:45:49.847Z,49.99
2023-04-11T23:47:52.998Z,50.05
2023-04-11T23:49:56.923Z,50.00
2023-04-11T23:51:59.512Z,49.97
2023-04-11T23:54:02.425Z,49.63
2023-04-11T23:56:05.504Z,49.40
2023-04-11T23:58:08.081Z,49.66
